Kralendijk, Netherlands

5:49 PM AST on June 22, 2017 (GMT -0400)
Den Chefi | | Change Station

Elev 12 ft 12.15 °N, 68.27 °W | Updated 10 seconds ago

Clear
Clear
84.0 °F
Feels Like 94 °F
N
9.6
Wind Variable Wind from ENE
Gusts 15.0 mph

Today
High -- | Low -- °F
--% Chance of Precip.
Yesterday
High -- | Low -- °F
Precip. -- in
Pressure 29.86 in
Visibility 6.2 miles
Clouds Few 1900 ft
Heat Index 94 °F
Dew Point 77 °F
Humidity 80%
Rainfall 0.00 in
Snow Depth Not available.
6:10 AM 7:00 PM
Waning Crescent, 2% visible
METAR TNCC 222100Z 10013KT 9999 FEW019 30/23 Q1011 NOSIG
Pressure 29.86 in
Visibility 6.2 miles
Clouds Few 1900 ft
Heat Index 94 °F
Dew Point 77 °F
Humidity 80%
Rainfall 0.00 in
Snow Depth Not available.
6:10 AM 7:00 PM
Waning Crescent, 2% visible
METAR TNCC 222100Z 10013KT 9999 FEW019 30/23 Q1011 NOSIG

Get Severe Weather Alerts

Thanks for signing up!

Be on the lookout for a verification email in your inbox.

You'll start receiving the daily forecast at 6 AM.

×

10-Day Weather Forecast

×

Almanac

Astronomy

Jun. 22, 2017 Rise Set
Actual Time
Civil Twilight
Nautical Twilight
Astronomical Twilight
Moon
Length of Visible Light
Length of Day
Tomorrow will be .
, % of the Moon is Illuminated

Today's Extremes

Country Highs Country Lows

Community

WunderPhotos

Category 6

Welcome to Category 6. This is the collective home for Weather Underground's featured writeups by Dr. Jeff Masters (right), Bob Henson (left), Chris Burt, and other regular contributors.

Nearby

Air Quality

  Air Quality AQ Index Pollutant
Not available.

Snow Depth

Station Depth Elevation

Earthquake Activity

City Distance Mag. Time & Date
Minimum magnitude displayed is 2.5.

Coastal Water Temperatures

Place Temperature

Stations

Nearby Weather Stations

Station Location Temp. Windchill Dew Point Humidity Wind Precip. Elev Updated Type